Terminal Aerodrome Forecast
Issued by NWS Topeka, KS

Home | Current Version | Previous Version | Graphics & Text | Print | Product List | Glossary On
Versions: 1 2 3 4 5 6 7 8 9 10
131
FTUS43 KTOP 221120
TAFTOP
TAF
KTOP 221120Z 2212/2312 02010KT P6SM OVC080
     FM221500 02013G19KT P6SM BKN100
     FM222300 35006KT P6SM FEW200=

USA.gov is the U.S. government's official web portal to all federal, state and local government web resources and services.